This is the latest recevied weather packets stored in our database for station/object W5HKR. If no packets are shown the sender has not sent any weather packets the latest 1 day(s).
| Time | Temp. | Humidity | Pressure | Rain* | Wind** | Luminosity | Snow |
|---|---|---|---|---|---|---|---|
| 1778085595 | 26.11° C | 84% | 982.7 hPa | 0 mm | - | - | - |
| 1778085505 | 26.11° C | 85% | 982.5 hPa | 0 mm | - | - | - |
| 1778084904 | 25.56° C | 84% | 983.1 hPa | 0 mm | - | - | - |
| 1778084305 | 25.56° C | 86% | 982.8 hPa | 0 mm | - | - | - |
| 1778083705 | 18.33° C | 91% | 990.6 hPa | 0 mm | - | - | - |
| 1778080704 | 18.33° C | 91% | 990.6 hPa | 0 mm | - | - | - |
| 1778080195 | 24.44° C | 89% | 981.7 hPa | 0 mm | - | - | - |
| 1778080104 | 18.33° C | 91% | 990.6 hPa | 0 mm | - | - | - |
| 1778079204 | 18.33° C | 91% | 990.6 hPa | 0 mm | - | - | - |
| 1778078304 | 24.44° C | 90% | 982 hPa | 0 mm | - | - | - |
| 1778078004 | 23.89° C | 90% | 982.1 hPa | 0 mm | - | - | - |
| 1778077104 | 24.44° C | 90% | 981.4 hPa | 0 mm | - | - | - |
| 1778076956 | 24.44° C | 90% | 981.2 hPa | 0 mm | - | - | - |
| 1778076204 | 18.33° C | 91% | 990.6 hPa | 0 mm | - | - | - |
| 1778075875 | 23.89° C | 91% | 980.7 hPa | 0 mm | - | - | - |
| 1778075305 | 23.89° C | 91% | 980.7 hPa | 0 mm | - | - | - |
| 1778074795 | 18.33° C | 91% | 990.6 hPa | 0 mm | - | - | - |
| 1778073715 | 23.89° C | 91% | 980.7 hPa | 0 mm | - | - | - |
| 1778072605 | 23.89° C | 92% | 980.6 hPa | 0 mm | - | - | - |
| 1778070804 | 18.33° C | 91% | 990.6 hPa | 0 mm | - | - | - |
| 1778070475 | 18.33° C | 91% | 990.6 hPa | 0 mm | - | - | - |
| 1778070205 | 18.33° C | 91% | 990.6 hPa | 0 mm | - | - | - |
| 1778069905 | 18.33° C | 91% | 990.6 hPa | 0 mm | - | - | - |
| 1778069604 | 18.33° C | 91% | 990.6 hPa | 0 mm | - | - | - |
| 1778069004 | 18.33° C | 91% | 990.6 hPa | 0 mm | - | - | - |
* Rain latest hour (hover to see other rain measurements)
** Current wind speed in m/s (hover to see current wind gust speed)